Time;durP1;ratioP1;P1;durP2;ratioP2;P2;SDS_P1;SDS_P2;PMS_P1;PMS_P2;Temp;Humidity;BMP_temperature;BMP_pressure;BME280_temperature;BME280_humidity;BME280_pressure;Samples;Min_cycle;Max_cycle;Signal;HPM_P1;HPM_P2
2021/01/05 00:00:20;;;;;;;2.37;2.27;;;5.70;99.90;;;;;;5019919;28;20191;-78
2021/01/05 00:02:45;;;;;;;0.93;0.93;;;5.60;99.90;;;;;;5018430;28;20177;-78
2021/01/05 00:05:12;;;;;;;1.07;1.07;;;5.60;99.90;;;;;;5018527;28;20200;-78
2021/01/05 00:07:37;;;;;;;0.87;0.87;;;5.60;99.90;;;;;;5020658;28;20172;-78
2021/01/05 00:10:04;;;;;;;0.83;0.80;;;5.50;99.90;;;;;;5020668;28;20165;-80
2021/01/05 00:12:30;;;;;;;0.60;0.60;;;5.50;99.90;;;;;;5020841;28;20263;-79
2021/01/05 00:14:55;;;;;;;1.00;0.90;;;5.50;99.90;;;;;;5011466;28;20221;-79
2021/01/05 00:17:21;;;;;;;0.77;0.77;;;5.50;99.90;;;;;;5019232;28;20180;-81
2021/01/05 00:19:48;;;;;;;0.73;0.73;;;5.50;99.90;;;;;;5022802;28;20639;-78
2021/01/05 00:22:15;;;;;;;0.77;0.77;;;5.50;99.90;;;;;;5013729;28;20173;-78
2021/01/05 00:24:41;;;;;;;1.03;1.00;;;5.60;99.90;;;;;;4999477;28;20207;-78
2021/01/05 00:27:07;;;;;;;0.67;0.67;;;5.60;99.90;;;;;;5031118;28;20762;-78
2021/01/05 00:29:34;;;;;;;0.30;0.30;;;5.60;99.90;;;;;;5018329;28;20659;-78
2021/01/05 00:32:12;;;;;;;1.40;1.30;;;5.70;99.90;;;;;;4994276;28;20227;-78
2021/01/05 00:34:38;;;;;;;1.53;1.30;;;5.60;99.90;;;;;;5008264;28;20214;-78
2021/01/05 00:37:04;;;;;;;1.47;1.43;;;5.60;99.90;;;;;;5035766;28;20177;-78
2021/01/05 00:39:29;;;;;;;0.40;0.40;;;5.60;99.90;;;;;;5017174;28;20199;-78
2021/01/05 00:41:55;;;;;;;1.30;1.20;;;5.60;99.90;;;;;;5002927;28;20632;-78
2021/01/05 00:44:20;;;;;;;1.30;0.80;;;5.60;99.90;;;;;;5023520;28;20200;-78
2021/01/05 00:46:46;;;;;;;0.30;0.30;;;5.60;99.90;;;;;;5020508;28;20243;-78
2021/01/05 00:49:12;;;;;;;2.43;1.77;;;5.60;99.90;;;;;;5017884;28;20169;-78
2021/01/05 00:51:37;;;;;;;0.73;0.73;;;5.60;99.90;;;;;;5020348;28;20183;-78
2021/01/05 00:54:03;;;;;;;0.57;0.57;;;5.60;99.90;;;;;;5019482;28;20266;-78
2021/01/05 00:56:28;;;;;;;0.40;0.40;;;5.70;99.90;;;;;;5003697;28;20202;-78
2021/01/05 00:58:54;;;;;;;1.07;1.03;;;5.60;99.90;;;;;;5012191;28;20265;-78
2021/01/05 01:01:21;;;;;;;0.87;0.87;;;5.60;99.90;;;;;;5020429;28;20181;-78
2021/01/05 01:03:50;;;;;;;2.30;2.10;;;5.60;99.90;;;;;;5001285;28;20197;-78
2021/01/05 01:06:17;;;;;;;2.80;1.33;;;5.60;99.90;;;;;;5002725;28;20712;-78
2021/01/05 01:08:43;;;;;;;1.23;1.23;;;5.60;99.90;;;;;;5001360;28;20189;-78
2021/01/05 01:11:09;;;;;;;1.17;1.17;;;5.60;99.90;;;;;;5008310;28;20201;-78
2021/01/05 01:13:34;;;;;;;1.53;1.43;;;5.50;99.90;;;;;;5020863;28;20217;-78
2021/01/05 01:16:00;;;;;;;2.27;2.17;;;5.50;99.90;;;;;;5020423;28;20669;-78
2021/01/05 01:18:26;;;;;;;0.20;0.20;;;5.50;99.90;;;;;;5020929;28;20193;-78
2021/01/05 01:20:51;;;;;;;1.43;1.43;;;5.60;99.90;;;;;;5003499;28;20174;-78
2021/01/05 01:23:18;;;;;;;2.43;1.00;;;5.50;99.90;;;;;;5020886;28;20705;-78
2021/01/05 01:25:43;;;;;;;3.23;1.10;;;5.60;99.90;;;;;;5002705;28;20207;-78
2021/01/05 01:28:09;;;;;;;1.13;1.10;;;5.60;99.90;;;;;;5004945;28;20192;-78
2021/01/05 01:30:34;;;;;;;1.10;0.73;;;5.60;99.90;;;;;;5003094;28;20187;-78
2021/01/05 01:33:00;;;;;;;2.90;0.70;;;5.60;99.90;;;;;;5021114;28;20176;-79
2021/01/05 01:35:25;;;;;;;1.93;1.40;;;5.50;99.90;;;;;;5018848;28;20302;-78
2021/01/05 01:37:51;;;;;;;1.00;0.87;;;5.60;99.90;;;;;;5003751;28;20278;-78
2021/01/05 01:40:37;;;;;;;2.87;1.43;;;5.60;99.90;;;;;;5004347;28;20181;-78
2021/01/05 01:43:04;;;;;;;1.57;1.30;;;5.60;99.90;;;;;;5021301;28;20250;-78
2021/01/05 01:45:30;;;;;;;2.83;1.07;;;5.50;99.90;;;;;;5030743;28;20194;-78
2021/01/05 01:47:57;;;;;;;1.60;1.43;;;5.50;99.90;;;;;;5036639;28;20184;-78
2021/01/05 01:50:27;;;;;;;1.47;1.37;;;5.50;99.90;;;;;;5020337;28;20723;-78
2021/01/05 01:53:06;;;;;;;2.30;0.83;;;5.50;99.90;;;;;;5020758;28;20186;-78
2021/01/05 01:55:38;;;;;;;1.17;1.00;;;5.50;99.90;;;;;;5011060;28;20265;-79
2021/01/05 01:58:34;;;;;;;2.70;2.07;;;5.50;99.90;;;;;;5023099;28;20189;-80
2021/01/05 02:01:09;;;;;;;0.90;0.90;;;5.60;99.90;;;;;;5017731;28;20156;-78
2021/01/05 02:04:00;;;;;;;2.90;0.93;;;5.70;99.90;;;;;;5017716;28;20196;-78
2021/01/05 02:06:48;;;;;;;1.93;1.17;;;5.60;99.90;;;;;;5007138;28;20242;-78
2021/01/05 02:09:52;;;;;;;1.70;1.50;;;5.60;99.90;;;;;;5017585;28;20533;-78
2021/01/05 02:12:30;;;;;;;1.33;1.23;;;5.60;99.90;;;;;;5015278;28;20238;-78
2021/01/05 02:15:00;;;;;;;2.20;2.10;;;5.50;99.90;;;;;;5009153;28;20218;-78
2021/01/05 02:17:47;;;;;;;0.57;0.57;;;5.60;99.90;;;;;;4998129;28;20525;-78
2021/01/05 02:20:23;;;;;;;1.87;1.77;;;5.50;99.90;;;;;;4996056;28;20181;-78
2021/01/05 02:23:16;;;;;;;0.93;0.93;;;5.40;99.90;;;;;;5013543;28;20225;-78
2021/01/05 02:25:51;;;;;;;2.27;1.63;;;5.50;99.90;;;;;;5017434;28;20646;-78
2021/01/05 02:28:19;;;;;;;1.10;0.43;;;5.50;99.90;;;;;;4998429;28;20176;-78
2021/01/05 02:30:51;;;;;;;0.80;0.70;;;5.50;99.90;;;;;;5010704;28;20207;-78
2021/01/05 02:33:31;;;;;;;2.97;1.60;;;5.40;99.90;;;;;;5019188;28;20262;-78
2021/01/05 02:36:11;;;;;;;3.27;1.03;;;5.30;99.90;;;;;;5003153;28;20297;-78
2021/01/05 02:39:00;;;;;;;1.70;0.90;;;5.40;99.90;;;;;;5018444;28;20159;-78
2021/01/05 02:41:53;;;;;;;2.37;2.20;;;5.40;99.90;;;;;;4999878;28;20169;-78
2021/01/05 02:44:32;;;;;;;0.50;0.50;;;5.50;99.90;;;;;;5017943;28;20205;-78
2021/01/05 02:47:22;;;;;;;1.70;1.60;;;5.40;99.90;;;;;;5018506;28;20145;-78
2021/01/05 02:50:22;;;;;;;3.83;1.73;;;5.50;99.90;;;;;;5017927;28;20178;-78
2021/01/05 02:53:12;;;;;;;1.27;1.13;;;5.40;99.90;;;;;;4996039;28;20189;-78
2021/01/05 02:56:02;;;;;;;1.60;1.50;;;5.50;99.90;;;;;;5018403;28;20755;-78
2021/01/05 02:59:02;;;;;;;3.37;1.47;;;5.50;99.90;;;;;;5007732;28;20190;-78
2021/01/05 03:01:39;;;;;;;0.80;0.80;;;5.40;99.90;;;;;;5016404;28;20179;-78
2021/01/05 03:04:04;;;;;;;1.63;1.17;;;5.50;99.90;;;;;;5018512;28;20194;-78
2021/01/05 03:06:35;;;;;;;2.70;2.00;;;5.50;99.90;;;;;;5017995;28;20184;-78
2021/01/05 03:09:19;;;;;;;1.07;1.07;;;5.50;99.90;;;;;;5018540;28;20179;-78
2021/01/05 03:12:00;;;;;;;0.83;0.83;;;5.50;99.90;;;;;;5018932;28;20165;-78
2021/01/05 03:14:56;;;;;;;0.40;0.40;;;5.50;99.90;;;;;;5017116;28;20208;-78
2021/01/05 03:17:27;;;;;;;2.23;1.37;;;5.50;99.90;;;;;;5018169;28;20195;-78
2021/01/05 03:20:02;;;;;;;1.33;0.93;;;5.50;99.90;;;;;;5019444;28;20208;-78
2021/01/05 03:22:30;;;;;;;0.93;0.87;;;5.50;99.90;;;;;;5001580;28;20195;-78
2021/01/05 03:24:58;;;;;;;1.13;1.10;;;5.60;99.90;;;;;;5001379;28;20690;-78
2021/01/05 03:27:25;;;;;;;1.23;1.07;;;5.50;99.90;;;;;;5001742;28;20209;-79
2021/01/05 03:29:57;;;;;;;1.07;1.07;;;5.50;99.90;;;;;;5018093;28;20172;-78
2021/01/05 03:32:22;;;;;;;1.37;1.27;;;5.50;99.90;;;;;;5001594;28;20173;-78
2021/01/05 03:34:48;;;;;;;1.33;1.03;;;5.50;99.90;;;;;;5001820;28;20194;-79
2021/01/05 03:37:13;;;;;;;2.03;1.27;;;5.60;99.90;;;;;;5003692;28;20632;-78
2021/01/05 03:39:39;;;;;;;1.47;1.37;;;5.60;99.90;;;;;;5014925;28;20175;-78
2021/01/05 03:42:05;;;;;;;0.90;0.80;;;5.50;99.90;;;;;;5019338;28;20185;-78
2021/01/05 03:44:33;;;;;;;2.27;2.07;;;5.50;99.90;;;;;;5022600;28;20256;-78
2021/01/05 03:46:59;;;;;;;1.40;1.33;;;5.50;99.90;;;;;;5007182;28;20233;-78
2021/01/05 03:49:24;;;;;;;0.90;0.83;;;5.50;99.90;;;;;;5015250;28;20183;-78
2021/01/05 03:51:50;;;;;;;3.63;0.67;;;5.50;99.90;;;;;;4997802;28;20194;-78
2021/01/05 03:54:15;;;;;;;0.83;0.83;;;5.50;99.90;;;;;;4997848;28;20195;-78
2021/01/05 03:56:41;;;;;;;0.93;0.80;;;5.50;99.90;;;;;;5015641;28;20207;-78
2021/01/05 03:59:06;;;;;;;0.90;0.90;;;5.50;99.90;;;;;;5013875;28;20189;-78
2021/01/05 04:01:32;;;;;;;1.77;1.50;;;5.50;99.90;;;;;;5000911;28;20172;-78
2021/01/05 04:03:57;;;;;;;1.67;1.57;;;5.60;99.90;;;;;;5015964;28;20194;-78
2021/01/05 04:06:26;;;;;;;1.77;1.67;;;5.60;99.90;;;;;;5009893;28;20190;-78
2021/01/05 04:08:52;;;;;;;1.17;0.70;;;5.60;99.90;;;;;;4998221;28;20188;-80
2021/01/05 04:11:18;;;;;;;1.30;1.20;;;5.50;99.90;;;;;;5018047;28;20673;-78
2021/01/05 04:13:43;;;;;;;1.30;0.93;;;5.60;99.90;;;;;;5014419;28;20202;-78
2021/01/05 04:16:09;;;;;;;0.97;0.60;;;5.60;99.90;;;;;;4988573;28;20242;-78
2021/01/05 04:18:34;;;;;;;1.03;0.83;;;5.60;99.90;;;;;;5016614;28;20514;-79
2021/01/05 04:21:00;;;;;;;1.33;1.23;;;5.60;99.90;;;;;;4998563;28;20177;-78
2021/01/05 04:23:25;;;;;;;3.43;3.03;;;5.50;99.90;;;;;;4998181;28;20335;-78
2021/01/05 04:25:51;;;;;;;2.30;2.10;;;5.60;99.90;;;;;;5016126;28;20659;-78
2021/01/05 04:28:16;;;;;;;1.67;1.57;;;5.60;99.90;;;;;;5016244;28;20191;-78
2021/01/05 04:30:42;;;;;;;0.77;0.77;;;5.50;99.90;;;;;;4998630;28;20648;-78
2021/01/05 04:33:10;;;;;;;1.33;1.23;;;5.40;99.90;;;;;;5016529;28;20208;-78
2021/01/05 04:35:37;;;;;;;1.03;0.93;;;5.50;99.90;;;;;;4998502;28;20220;-80
2021/01/05 04:38:03;;;;;;;1.57;1.47;;;5.50;99.90;;;;;;5015272;28;20227;-78
2021/01/05 04:40:44;;;;;;;1.67;1.57;;;5.50;99.90;;;;;;5017165;28;20179;-78
2021/01/05 04:43:19;;;;;;;2.33;2.17;;;5.50;99.90;;;;;;5017843;28;20218;-78
2021/01/05 04:46:14;;;;;;;1.23;1.13;;;5.50;99.90;;;;;;5017897;28;20247;-78
2021/01/05 04:48:43;;;;;;;1.60;1.50;;;5.40;99.90;;;;;;4996678;28;20698;-78
2021/01/05 04:51:23;;;;;;;3.03;2.40;;;5.40;99.90;;;;;;5017442;28;20193;-78
2021/01/05 04:54:00;;;;;;;4.33;1.67;;;5.50;99.90;;;;;;5004845;28;20222;-78
2021/01/05 04:56:53;;;;;;;1.97;1.20;;;5.50;99.90;;;;;;5001321;28;20270;-78
2021/01/05 05:01:49;;;;;;;0.87;0.87;;;5.50;99.90;;;;;;5013156;28;20205;-80
2021/01/05 05:04:39;;;;;;;2.87;2.67;;;5.50;99.90;;;;;;5024858;28;20189;-80
2021/01/05 05:07:31;;;;;;;1.50;1.40;;;5.50;99.90;;;;;;5016992;28;20170;-80
2021/01/05 05:10:05;;;;;;;0.63;0.63;;;5.50;99.90;;;;;;5034678;28;20617;-81
2021/01/05 05:12:39;;;;;;;1.57;1.47;;;5.50;99.90;;;;;;5018850;28;20170;-81
2021/01/05 05:15:41;;;;;;;1.83;1.30;;;5.40;99.90;;;;;;5020529;28;20217;-79
2021/01/05 05:18:21;;;;;;;1.20;1.10;;;5.50;99.90;;;;;;5035913;28;20164;-79
2021/01/05 05:21:11;;;;;;;1.97;1.87;;;5.50;99.90;;;;;;5035102;28;20175;-79
2021/01/05 05:23:56;;;;;;;1.13;1.13;;;5.50;99.90;;;;;;5019283;28;20227;-79
2021/01/05 05:26:36;;;;;;;2.93;2.00;;;5.60;99.90;;;;;;5039462;28;20167;-79
2021/01/05 05:29:31;;;;;;;2.23;2.13;;;5.60;99.90;;;;;;5021024;28;20180;-79
2021/01/05 05:32:00;;;;;;;1.77;1.67;;;5.70;99.90;;;;;;5040060;28;20161;-79
2021/01/05 05:34:30;;;;;;;2.00;1.83;;;5.60;99.90;;;;;;5039745;28;20315;-79
2021/01/05 05:37:10;;;;;;;3.83;1.40;;;5.60;99.90;;;;;;5039969;28;20165;-79
2021/01/05 05:39:46;;;;;;;3.93;2.73;;;5.60;99.90;;;;;;5040077;28;20656;-79
2021/01/05 05:42:32;;;;;;;1.80;1.23;;;5.50;99.90;;;;;;5040051;28;20169;-80
2021/01/05 05:45:07;;;;;;;6.30;2.87;;;5.60;99.90;;;;;;5019236;28;20247;-79
2021/01/05 05:47:45;;;;;;;3.00;2.67;;;5.50;99.90;;;;;;5014673;28;20198;-79
2021/01/05 05:50:25;;;;;;;4.93;2.20;;;5.50;99.90;;;;;;5039868;28;20173;-79
2021/01/05 05:53:21;;;;;;;1.20;0.73;;;5.60;99.90;;;;;;5022549;28;20171;-79
2021/01/05 05:56:15;;;;;;;1.77;1.23;;;5.60;99.90;;;;;;5022755;28;20192;-79
2021/01/05 05:58:47;;;;;;;2.93;1.13;;;5.70;99.90;;;;;;5036288;28;20204;-79
2021/01/05 06:01:18;;;;;;;1.80;1.70;;;5.50;99.90;;;;;;5041152;28;20210;-79
2021/01/05 06:03:43;;;;;;;0.97;0.97;;;5.50;99.90;;;;;;5022986;28;20242;-79
2021/01/05 06:06:09;;;;;;;1.27;1.27;;;5.50;99.90;;;;;;5022689;28;20180;-81
2021/01/05 06:08:35;;;;;;;1.53;1.43;;;5.50;99.90;;;;;;5041184;28;20555;-80
2021/01/05 06:11:02;;;;;;;1.40;1.30;;;5.50;99.90;;;;;;5040797;28;20187;-79
2021/01/05 06:13:28;;;;;;;2.97;2.27;;;5.50;99.90;;;;;;5040878;28;20191;-80
2021/01/05 06:15:53;;;;;;;1.80;1.03;;;5.50;99.90;;;;;;5023041;28;20280;-80
2021/01/05 06:18:19;;;;;;;1.63;1.53;;;5.50;99.90;;;;;;5022192;28;20170;-78
2021/01/05 06:20:45;;;;;;;2.00;1.47;;;5.50;99.90;;;;;;5038807;28;20168;-78
2021/01/05 06:23:12;;;;;;;2.27;2.07;;;5.50;99.90;;;;;;5038913;28;20171;-79
2021/01/05 06:25:37;;;;;;;1.60;1.50;;;5.60;99.90;;;;;;5021295;28;20181;-80
2021/01/05 06:28:04;;;;;;;2.30;1.90;;;5.60;99.90;;;;;;5040678;28;20215;-79
2021/01/05 06:30:29;;;;;;;2.30;2.10;;;5.70;99.90;;;;;;5040371;28;20231;-79
2021/01/05 06:32:56;;;;;;;1.60;1.23;;;5.70;99.90;;;;;;5041265;28;20182;-78
2021/01/05 06:35:23;;;;;;;4.20;1.80;;;5.60;99.90;;;;;;5039710;28;20257;-79
2021/01/05 06:37:50;;;;;;;2.00;1.80;;;5.50;99.90;;;;;;5021813;28;20181;-79
2021/01/05 06:40:19;;;;;;;1.57;1.57;;;5.60;99.90;;;;;;5023344;28;20178;-80
2021/01/05 06:42:45;;;;;;;2.07;1.97;;;5.50;99.90;;;;;;5023033;28;20571;-81
2021/01/05 06:45:16;;;;;;;1.07;0.90;;;5.50;99.90;;;;;;5023443;28;20204;-80
2021/01/05 06:47:42;;;;;;;3.47;1.97;;;5.50;99.90;;;;;;5022979;28;20537;-81
2021/01/05 06:50:08;;;;;;;2.77;2.57;;;5.50;99.90;;;;;;5024155;28;20214;-82
2021/01/05 06:52:33;;;;;;;1.80;1.70;;;5.50;99.90;;;;;;5022522;28;20179;-80
2021/01/05 06:54:59;;;;;;;1.53;1.40;;;5.50;99.90;;;;;;5037714;28;20244;-81
2021/01/05 06:57:24;;;;;;;1.93;1.60;;;5.50;99.90;;;;;;5036571;28;20185;-80
2021/01/05 06:59:50;;;;;;;3.77;2.90;;;5.50;99.90;;;;;;5018793;28;20568;-79
2021/01/05 07:02:16;;;;;;;2.57;1.53;;;5.50;99.90;;;;;;5018411;28;20655;-79
2021/01/05 07:04:42;;;;;;;2.70;2.50;;;5.50;99.90;;;;;;5036779;28;20273;-79
2021/01/05 07:07:08;;;;;;;1.93;1.50;;;5.50;99.90;;;;;;5037173;28;20219;-80
2021/01/05 07:09:34;;;;;;;1.37;1.03;;;5.50;99.90;;;;;;5018853;28;20185;-79
2021/01/05 07:11:59;;;;;;;3.90;1.97;;;5.60;99.90;;;;;;5036364;28;20179;-79
2021/01/05 07:14:27;;;;;;;1.90;1.80;;;5.60;99.90;;;;;;5037213;28;20226;-81
2021/01/05 07:16:53;;;;;;;2.23;2.03;;;5.60;99.90;;;;;;5036404;28;20193;-80
2021/01/05 07:19:19;;;;;;;2.20;1.73;;;5.60;99.90;;;;;;5019276;28;20646;-80
2021/01/05 07:21:45;;;;;;;1.37;0.90;;;5.60;99.90;;;;;;5037013;28;20175;-79
2021/01/05 07:24:11;;;;;;;2.00;1.40;;;5.60;99.90;;;;;;5019453;28;20205;-78
2021/01/05 07:26:41;;;;;;;1.07;0.87;;;5.60;99.90;;;;;;5037195;28;20176;-80
2021/01/05 07:29:07;;;;;;;1.97;1.87;;;5.50;99.90;;;;;;5037206;28;20200;-80
2021/01/05 07:31:33;;;;;;;0.97;0.97;;;5.60;99.90;;;;;;5036648;28;20232;-79
2021/01/05 07:33:58;;;;;;;3.17;1.77;;;5.60;99.90;;;;;;5037390;28;20264;-79
2021/01/05 07:36:30;;;;;;;1.17;1.07;;;5.60;99.90;;;;;;5019288;28;20576;-78
2021/01/05 07:38:56;;;;;;;2.10;1.67;;;5.60;99.90;;;;;;5020061;28;20191;-78
2021/01/05 07:41:21;;;;;;;1.23;1.17;;;5.50;99.90;;;;;;5021366;28;20547;-79
2021/01/05 07:43:47;;;;;;;1.37;0.80;;;5.60;99.90;;;;;;5038827;28;20222;-78
2021/01/05 07:46:13;;;;;;;1.50;1.40;;;5.50;99.90;;;;;;5036918;28;20185;-84
2021/01/05 07:48:39;;;;;;;0.97;0.83;;;5.40;99.90;;;;;;5020183;28;20192;-81
2021/01/05 07:51:06;;;;;;;4.32;3.75;;;5.50;99.90;;;;;;5018968;28;20789;-80
2021/01/05 07:53:32;;;;;;;2.43;2.23;;;5.50;99.90;;;;;;5020426;28;20275;-80
2021/01/05 07:55:58;;;;;;;2.13;2.03;;;5.60;99.90;;;;;;5020796;28;20196;-80
2021/01/05 07:58:23;;;;;;;5.03;1.77;;;5.50;99.90;;;;;;5038480;28;20177;-81
2021/01/05 08:00:49;;;;;;;2.07;1.93;;;5.60;99.90;;;;;;5021141;28;20218;-81
2021/01/05 08:03:14;;;;;;;1.83;1.73;;;5.50;99.90;;;;;;5020944;28;20559;-81
2021/01/05 08:05:40;;;;;;;2.53;2.33;;;5.50;99.90;;;;;;5038808;28;20194;-79
2021/01/05 08:08:06;;;;;;;0.73;0.73;;;5.40;99.90;;;;;;5020045;28;20513;-81
2021/01/05 08:10:34;;;;;;;2.50;1.83;;;5.40;99.90;;;;;;5038286;28;20257;-81
2021/01/05 08:13:01;;;;;;;1.33;1.23;;;5.40;99.90;;;;;;5020091;28;20244;-81
2021/01/05 08:15:31;;;;;;;2.27;1.33;;;5.50;99.90;;;;;;5039343;28;20190;-79
2021/01/05 08:17:57;;;;;;;0.80;0.80;;;5.50;99.90;;;;;;5023814;28;20178;-80
2021/01/05 08:20:29;;;;;;;1.70;1.60;;;5.50;99.90;;;;;;5043789;28;20174;-79
2021/01/05 08:22:55;;;;;;;1.90;1.57;;;5.50;99.90;;;;;;5045542;28;20168;-80
2021/01/05 08:25:22;;;;;;;1.43;1.13;;;5.50;99.90;;;;;;5025584;28;20202;-80
2021/01/05 08:27:50;;;;;;;2.03;1.93;;;5.50;99.90;;;;;;5039488;28;20210;-82
2021/01/05 08:30:24;;;;;;;1.53;1.43;;;5.50;99.90;;;;;;5022387;28;20229;-79
2021/01/05 08:32:51;;;;;;;0.70;0.70;;;5.50;99.90;;;;;;5023105;28;20256;-78
2021/01/05 08:35:19;;;;;;;1.33;1.30;;;5.50;99.90;;;;;;5022445;28;20273;-78
2021/01/05 08:37:45;;;;;;;1.97;0.70;;;5.50;99.90;;;;;;5040030;28;20180;-77
2021/01/05 08:40:15;;;;;;;1.80;1.70;;;5.60;99.90;;;;;;5037470;28;20172;-78
2021/01/05 08:42:40;;;;;;;2.67;2.47;;;5.60;99.90;;;;;;5021116;28;20175;-78
2021/01/05 08:45:07;;;;;;;1.93;1.30;;;5.60;99.90;;;;;;5038826;28;20266;-77
2021/01/05 08:47:32;;;;;;;3.00;1.60;;;5.60;99.90;;;;;;5038704;28;20180;-77
2021/01/05 08:49:58;;;;;;;1.90;1.80;;;5.60;99.90;;;;;;5020788;28;20174;-78
2021/01/05 08:52:23;;;;;;;1.17;0.83;;;5.60;99.90;;;;;;5038392;28;20177;-79
2021/01/05 08:54:49;;;;;;;1.57;1.50;;;5.60;99.90;;;;;;5038424;28;20196;-78
2021/01/05 08:57:14;;;;;;;1.83;1.67;;;5.50;99.90;;;;;;5038146;28;20214;-78
2021/01/05 08:59:47;;;;;;;0.77;0.77;;;5.50;99.90;;;;;;5023862;28;20236;-79
2021/01/05 09:02:13;;;;;;;2.10;2.00;;;5.50;99.90;;;;;;5042595;28;20573;-79
2021/01/05 09:04:39;;;;;;;1.07;0.87;;;5.50;99.90;;;;;;5023790;28;20188;-80
2021/01/05 09:07:05;;;;;;;1.47;1.40;;;5.60;99.90;;;;;;5042702;28;20171;-78
2021/01/05 09:09:30;;;;;;;0.73;0.60;;;5.50;99.90;;;;;;5042383;28;20175;-79
2021/01/05 09:11:58;;;;;;;3.10;1.97;;;5.50;99.90;;;;;;5025001;28;20210;-79
2021/01/05 09:14:24;;;;;;;3.37;1.83;;;5.60;99.90;;;;;;5024154;28;20200;-78
2021/01/05 09:16:58;;;;;;;2.17;1.73;;;5.60;99.90;;;;;;5023235;28;20287;-79
2021/01/05 09:19:24;;;;;;;1.60;1.50;;;5.50;99.90;;;;;;5040782;28;20278;-79
2021/01/05 09:21:50;;;;;;;1.30;1.20;;;5.50;99.90;;;;;;5043095;28;20175;-77
2021/01/05 09:24:15;;;;;;;2.53;1.70;;;5.50;99.90;;;;;;5023289;28;20191;-79
2021/01/05 09:26:41;;;;;;;2.00;1.87;;;5.60;99.90;;;;;;5039958;28;20209;-79
2021/01/05 09:29:10;;;;;;;0.83;0.83;;;5.70;99.90;;;;;;5039935;28;20655;-79
2021/01/05 09:31:41;;;;;;;1.47;1.17;;;5.70;99.90;;;;;;5020097;28;20185;-78
2021/01/05 09:34:06;;;;;;;1.77;0.97;;;5.70;99.90;;;;;;5043626;28;20198;-80
2021/01/05 09:36:36;;;;;;;4.13;2.93;;;5.70;99.90;;;;;;5024569;28;20198;-79
2021/01/05 09:39:05;;;;;;;1.03;1.00;;;5.60;99.90;;;;;;5019622;28;20176;-81
2021/01/05 09:41:35;;;;;;;1.90;1.80;;;5.60;99.90;;;;;;5009894;28;20198;-80
2021/01/05 09:44:01;;;;;;;1.57;1.47;;;5.60;99.90;;;;;;5041109;28;20213;-78
2021/01/05 09:46:26;;;;;;;1.60;1.50;;;5.60;99.90;;;;;;5028093;28;20179;-79
2021/01/05 09:48:52;;;;;;;1.47;1.40;;;5.60;99.90;;;;;;5044962;28;20169;-79
2021/01/05 09:51:24;;;;;;;0.70;0.70;;;5.70;99.90;;;;;;5030421;28;20173;-77
2021/01/05 09:53:50;;;;;;;1.63;1.53;;;5.60;99.90;;;;;;5011637;28;20188;-79
2021/01/05 09:56:16;;;;;;;2.03;1.80;;;5.70;99.90;;;;;;5045643;28;20196;-78
2021/01/05 09:58:42;;;;;;;5.50;1.83;;;5.70;99.90;;;;;;5048044;28;20183;-79
2021/01/05 10:01:08;;;;;;;1.90;1.80;;;5.70;99.90;;;;;;5028199;28;20180;-80
2021/01/05 10:03:33;;;;;;;2.97;1.63;;;5.70;99.90;;;;;;5044208;28;20202;-80
2021/01/05 10:05:59;;;;;;;1.07;1.07;;;5.70;99.90;;;;;;5029781;28;20172;-79
2021/01/05 10:08:24;;;;;;;1.20;1.17;;;5.80;99.90;;;;;;5048046;28;20579;-78
2021/01/05 10:10:50;;;;;;;2.23;1.57;;;5.70;99.90;;;;;;5041914;28;20577;-78
2021/01/05 10:13:15;;;;;;;1.47;1.40;;;5.70;99.90;;;;;;5043096;28;20248;-78
2021/01/05 10:15:41;;;;;;;1.37;1.03;;;5.70;99.90;;;;;;5023384;28;20273;-79
2021/01/05 10:18:07;;;;;;;1.47;1.37;;;5.70;99.90;;;;;;5042551;28;20693;-79
2021/01/05 10:20:32;;;;;;;0.60;0.60;;;5.70;99.90;;;;;;5025036;28;20175;-79
2021/01/05 10:22:58;;;;;;;2.73;2.53;;;5.80;99.90;;;;;;5041780;28;20301;-79
2021/01/05 10:25:24;;;;;;;1.60;1.37;;;5.80;99.90;;;;;;5025880;28;20203;-79
2021/01/05 10:27:49;;;;;;;0.93;0.93;;;5.80;99.90;;;;;;5043060;28;20172;-79
2021/01/05 10:30:16;;;;;;;1.20;1.10;;;5.80;99.90;;;;;;5042760;28;20168;-78
2021/01/05 10:32:46;;;;;;;1.63;1.50;;;5.80;99.90;;;;;;5043484;28;20208;-79
2021/01/05 10:35:15;;;;;;;3.73;1.33;;;5.80;99.90;;;;;;5022589;28;20211;-84
2021/01/05 10:37:40;;;;;;;1.67;1.57;;;5.80;99.90;;;;;;5022766;28;20181;-78
2021/01/05 10:40:07;;;;;;;1.40;1.30;;;5.70;99.90;;;;;;5022058;28;20701;-78
2021/01/05 10:42:34;;;;;;;0.67;0.67;;;5.70;99.90;;;;;;5035841;28;20197;-80
2021/01/05 10:44:59;;;;;;;4.37;1.97;;;5.70;99.90;;;;;;5022637;28;20197;-81
2021/01/05 10:47:25;;;;;;;3.20;2.53;;;5.70;99.90;;;;;;5040877;28;20183;-79
2021/01/05 10:49:51;;;;;;;2.40;2.20;;;5.70;99.90;;;;;;5023032;28;20174;-79
2021/01/05 10:52:17;;;;;;;3.70;1.90;;;5.70;99.90;;;;;;5022405;28;20189;-78
2021/01/05 10:54:43;;;;;;;2.17;2.00;;;5.70;99.90;;;;;;5041250;28;20728;-80
2021/01/05 10:57:10;;;;;;;3.30;2.50;;;5.70;99.90;;;;;;5040035;28;20658;-80
2021/01/05 10:59:35;;;;;;;1.17;1.17;;;5.70;99.90;;;;;;5040911;28;20170;-80
2021/01/05 11:02:03;;;;;;;0.60;0.60;;;5.70;99.90;;;;;;5021897;28;20164;-79
2021/01/05 11:04:29;;;;;;;1.80;1.20;;;5.80;99.90;;;;;;5019671;28;20682;-80
2021/01/05 11:07:00;;;;;;;1.30;1.13;;;5.90;99.90;;;;;;5037512;28;20204;-81
2021/01/05 11:09:27;;;;;;;1.33;1.13;;;5.80;99.90;;;;;;5020398;28;20271;-80
2021/01/05 11:11:57;;;;;;;1.33;1.33;;;5.90;99.90;;;;;;5040083;28;20215;-80
2021/01/05 11:14:23;;;;;;;1.90;1.43;;;5.80;99.90;;;;;;5066752;22;20254;-84
2021/01/05 11:16:49;;;;;;;2.20;1.57;;;5.80;99.90;;;;;;5056514;28;20190;-84
2021/01/05 11:19:15;;;;;;;2.13;2.00;;;5.80;99.90;;;;;;5038101;28;20184;-85
2021/01/05 11:21:41;;;;;;;1.47;1.43;;;5.70;99.90;;;;;;5039044;28;20173;-85
2021/01/05 11:24:07;;;;;;;2.17;1.33;;;5.70;99.90;;;;;;5058070;28;20251;-84
2021/01/05 11:26:36;;;;;;;2.53;2.33;;;5.70;99.90;;;;;;5040790;28;20263;-85
2021/01/05 11:29:03;;;;;;;4.07;2.77;;;5.80;99.90;;;;;;5057907;28;20170;-84
2021/01/05 11:31:29;;;;;;;2.17;2.07;;;5.80;99.90;;;;;;5056733;28;20188;-85
2021/01/05 11:33:54;;;;;;;0.87;0.87;;;5.90;99.90;;;;;;5039443;28;20190;-86
2021/01/05 11:36:29;;;;;;;0.60;0.60;;;5.80;99.90;;;;;;5058501;28;20219;-84
2021/01/05 11:38:56;;;;;;;1.40;1.40;;;5.80;99.90;;;;;;5057932;28;20162;-85
2021/01/05 11:41:23;;;;;;;1.70;1.60;;;5.80;99.90;;;;;;5060112;28;20186;-84
2021/01/05 11:43:48;;;;;;;1.00;0.87;;;5.90;99.90;;;;;;5041072;28;20659;-86
2021/01/05 11:46:14;;;;;;;2.20;1.33;;;5.80;99.90;;;;;;5054965;28;20206;-86
2021/01/05 11:48:40;;;;;;;2.53;2.33;;;5.80;99.90;;;;;;5038827;28;20210;-86
2021/01/05 11:51:05;;;;;;;3.23;2.43;;;5.90;99.90;;;;;;5053056;28;20178;-84
2021/01/05 11:53:31;;;;;;;3.43;2.03;;;5.80;99.90;;;;;;5038141;28;20535;-85
2021/01/05 11:55:56;;;;;;;1.83;1.60;;;5.70;99.90;;;;;;5036978;28;20333;-85
2021/01/05 11:58:22;;;;;;;1.83;1.70;;;5.80;99.90;;;;;;5030701;28;20167;-82
2021/01/05 12:00:47;;;;;;;2.43;2.27;;;5.70;99.90;;;;;;5035965;28;20648;-85
2021/01/05 12:03:13;;;;;;;2.37;1.93;;;5.80;99.90;;;;;;5045310;28;20616;-86
2021/01/05 12:05:38;;;;;;;1.70;1.60;;;5.80;99.90;;;;;;5029479;28;20653;-85
2021/01/05 12:08:04;;;;;;;2.50;2.30;;;5.80;99.90;;;;;;5032282;28;20166;-85
2021/01/05 12:10:30;;;;;;;1.30;1.20;;;5.80;99.90;;;;;;5036720;28;20171;-84
2021/01/05 12:12:55;;;;;;;2.93;1.37;;;5.80;99.90;;;;;;5036075;28;20221;-84
2021/01/05 12:15:21;;;;;;;1.60;1.50;;;5.90;99.90;;;;;;5034349;28;20285;-82
2021/01/05 12:17:46;;;;;;;1.93;1.80;;;5.90;99.90;;;;;;5035986;28;20273;-87
2021/01/05 12:20:12;;;;;;;0.90;0.90;;;5.90;99.90;;;;;;5033043;28;20271;-88
2021/01/05 12:22:38;;;;;;;2.33;2.13;;;5.80;99.90;;;;;;5032082;28;20177;-86
2021/01/05 12:25:05;;;;;;;1.93;1.77;;;5.80;99.90;;;;;;5027539;28;20206;-85
2021/01/05 12:27:30;;;;;;;2.07;1.90;;;6.00;99.90;;;;;;5025731;28;20225;-88
2021/01/05 12:29:56;;;;;;;1.70;0.73;;;6.00;99.90;;;;;;5025423;28;20215;-82
2021/01/05 12:32:21;;;;;;;3.13;1.73;;;6.00;99.90;;;;;;5036931;28;20189;-85
2021/01/05 12:34:50;;;;;;;2.30;2.20;;;6.10;99.90;;;;;;5038423;28;20205;-83
2021/01/05 12:37:19;;;;;;;2.40;1.57;;;6.10;99.90;;;;;;5051568;28;20219;-83
2021/01/05 12:39:45;;;;;;;5.30;2.47;;;6.20;99.90;;;;;;5039494;28;20175;-83
2021/01/05 12:42:18;;;;;;;0.77;0.77;;;6.10;99.90;;;;;;5036043;28;20183;-86
2021/01/05 12:44:43;;;;;;;1.20;1.17;;;6.00;99.90;;;;;;5058663;28;20202;-84
2021/01/05 12:47:09;;;;;;;0.77;0.77;;;5.90;99.90;;;;;;5058609;28;20183;-82
2021/01/05 12:49:35;;;;;;;1.93;1.37;;;5.80;99.90;;;;;;5040033;28;20736;-82
2021/01/05 12:52:09;;;;;;;2.23;0.97;;;5.80;99.90;;;;;;5058343;28;20163;-82
2021/01/05 12:54:36;;;;;;;2.30;2.03;;;5.80;99.90;;;;;;5025118;28;20243;-83
2021/01/05 12:57:03;;;;;;;1.47;1.33;;;5.70;99.90;;;;;;5036811;28;20635;-84
2021/01/05 12:59:29;;;;;;;0.30;0.30;;;5.70;99.90;;;;;;5040045;28;20573;-85
2021/01/05 13:02:00;;;;;;;1.40;1.17;;;5.70;99.90;;;;;;5040269;28;20171;-83
2021/01/05 13:04:25;;;;;;;1.23;1.17;;;5.70;99.90;;;;;;5041990;28;20536;-86
2021/01/05 13:06:52;;;;;;;1.40;1.30;;;5.70;99.90;;;;;;5040935;28;20180;-81
2021/01/05 13:09:18;;;;;;;2.00;1.33;;;5.70;99.90;;;;;;5041758;28;20186;-84
2021/01/05 13:11:45;;;;;;;1.20;0.90;;;5.80;99.90;;;;;;5058792;28;20249;-83